Date,TemperatureHighF,TemperatureAvgF,TemperatureLowF,DewpointHighF,DewpointAvgF,DewpointLowF,HumidityHigh,HumidityAvg,HumidityLow,PressureMaxIn,PressureMinIn,WindSpeedMaxMPH,WindSpeedAvgMPH,GustSpeedMaxMPH,PrecipitationSumIn
2013-1-1,48.4,43.4,38.5,41.5,32.1,11.0,80,65,31,28.09,27.94,7,0,7,0.00
2013-1-2,47.1,40.6,37.0,41.6,33.8,29.0,82,76,67,28.11,27.92,5,0,5,0.00
2013-1-3,43.7,35.7,26.8,32.5,24.9,11.5,82,67,27,28.29,28.06,8,1,8,0.00
2013-1-4,50.2,33.1,22.6,21.7,6.2,-16.7,69,41,10,28.35,28.23,13,2,13,0.00
2013-1-5,54.5,37.7,22.5,25.9,5.7,-11.0,59,33,10,28.33,28.19,6,1,6,0.00
2013-1-6,49.5,39.1,27.1,30.2,24.2,7.0,69,57,18,28.27,28.10,10,1,10,0.00
2013-1-7,60.8,36.3,25.5,47.7,15.4,-11.3,62,50,10,28.33,28.23,24,2,13,0.00
2013-1-8,64.0,46.3,30.9,29.5,6.0,-11.7,43,22,10,28.36,28.26,10,3,10,0.00
2013-1-9,58.5,54.4,50.5,47.8,46.5,41.9,84,75,62,28.40,28.35,4,0,4,0.01
2013-1-10,70.0,59.5,50.2,55.0,39.4,19.7,92,53,15,28.41,28.21,20,5,20,0.00
2013-1-11,64.8,61.8,59.2,58.2,50.2,41.9,84,66,52,28.22,28.09,20,5,20,0.00
2013-1-12,73.0,65.5,61.3,64.6,54.3,41.9,95,70,34,28.16,28.05,15,3,15,0.00
2013-1-13,68.5,65.6,61.0,55.8,46.6,43.8,82,51,42,28.10,28.00,17,6,17,0.00
2013-1-14,61.0,51.7,44.1,58.3,49.0,41.6,92,90,82,28.17,28.01,7,1,7,0.00
2013-1-15,59.0,52.0,45.3,58.7,51.4,43.0,99,98,92,28.11,27.93,13,1,13,0.00
2013-1-16,60.8,56.4,47.3,60.5,56.1,41.4,99,99,80,28.17,27.89,10,1,10,0.01
2013-1-17,52.0,44.8,34.2,51.3,42.4,20.8,99,92,55,28.21,27.63,16,2,16,0.00
2013-1-18,55.6,38.8,27.3,26.8,11.3,-6.7,75,39,10,28.43,28.21,10,2,10,0.00
2013-1-19,59.2,38.0,26.1,28.5,14.5,-8.1,75,46,12,28.39,28.18,8,1,8,0.15
2013-1-20,61.3,41.0,27.1,25.6,9.8,-7.4,69,36,10,28.19,28.06,9,2,9,0.00
2013-1-21,51.6,36.8,26.1,22.7,2.4,-19.7,65,32,10,28.12,28.04,20,4,20,0.00
2013-1-22,41.4,30.5,23.4,-11.3,-19.8,-25.4,10,10,10,28.24,28.09,15,4,15,0.00
2013-1-23,49.3,35.0,27.0,9.7,-12.2,-22.5,38,13,10,28.30,28.11,13,2,13,0.00
2013-1-24,49.1,38.4,25.7,19.6,-4.2,-22.7,41,18,10,28.30,28.09,17,4,17,0.00
2013-1-25,34.7,32.2,25.9,24.2,8.7,-21.0,67,42,10,28.30,28.07,20,3,20,0.00
2013-1-26,54.7,38.5,29.7,29.4,18.1,-9.6,72,52,10,28.28,28.10,7,1,7,0.01
2013-1-27,56.5,41.6,26.4,21.3,4.3,-7.8,65,30,10,28.40,28.25,16,4,16,0.00
2013-1-28,63.3,50.7,44.2,36.1,14.4,-8.2,61,27,10,28.35,28.22,15,2,15,0.00
2013-1-29,69.6,57.6,44.2,47.0,37.9,30.0,67,50,23,28.25,27.94,20,4,20,0.01
2013-1-30,66.2,57.8,38.7,53.1,44.6,23.3,80,63,33,27.95,27.55,25,8,25,1.52
2013-1-31,45.7,35.7,29.8,24.7,-0.4,-15.2,58,25,10,28.07,27.71,21,4,21,0.01
2013-2-1,41.2,30.5,19.9,12.5,-14.3,-25.6,44,15,10,28.30,28.01,21,5,21,0.00
2013-2-2,33.3,27.2,17.6,22.8,5.3,-21.4,65,43,10,28.30,28.05,6,0,6,0.00
2013-2-3,48.2,35.5,29.3,24.1,11.6,-12.8,67,44,10,28.07,27.96,15,2,15,0.19
2013-2-4,51.3,36.7,24.8,15.9,5.1,-10.4,55,31,10,28.10,27.95,7,1,7,0.00
2013-2-5,62.2,42.9,33.6,28.2,18.0,0.9,58,41,10,28.02,27.92,7,1,7,0.00
2013-2-6,66.0,44.0,29.5,30.5,11.9,-10.3,66,36,10,28.17,28.01,9,2,9,0.00
2013-2-7,56.3,48.3,35.4,36.1,19.9,-0.4,68,37,13,28.13,27.91,12,2,12,0.18
2013-2-8,56.1,45.9,35.8,41.0,25.4,-7.2,76,53,10,28.15,27.88,17,3,17,0.12
2013-2-9,67.3,43.2,26.1,24.4,7.7,-7.5,64,32,10,28.26,28.10,22,3,22,0.00
2013-2-10,56.5,50.2,45.5,36.1,9.2,-6.4,56,25,10,28.27,28.03,26,10,26,0.69
2013-2-11,56.5,51.4,41.4,46.6,37.9,25.2,74,61,32,28.10,27.99,26,2,26,0.12
2013-2-12,54.0,43.3,33.1,33.5,20.9,-4.3,76,50,10,28.09,27.83,6,1,6,0.31
2013-2-13,50.2,43.3,33.4,34.2,27.1,17.9,66,53,37,27.94,27.67,17,4,17,0.07
2013-2-14,66.0,43.1,32.4,26.8,9.3,-7.9,68,32,10,28.09,27.92,9,2,9,0.01
2013-2-15,60.1,40.1,27.5,30.1,15.6,-2.9,64,44,10,28.08,27.95,13,2,13,0.04
2013-2-16,38.1,31.3,25.2,19.6,-2.1,-23.9,57,28,10,28.05,27.90,25,4,25,0.01
2013-2-17,41.7,29.7,18.5,9.7,-18.3,-28.0,44,12,10,28.21,28.02,18,5,18,0.00
2013-2-18,60.6,39.6,20.7,5.6,-2.4,-15.8,44,21,10,28.28,28.07,21,4,21,0.00
2013-2-19,54.0,43.5,34.5,31.6,4.7,-16.6,62,27,10,28.11,27.94,23,6,23,0.32
2013-2-20,51.1,35.7,23.5,-1.9,-11.8,-22.2,31,13,10,28.14,28.07,16,2,16,0.00
2013-2-21,68.7,44.3,24.1,27.8,1.5,-17.0,53,20,10,28.15,27.94,21,3,21,0.48
2013-2-22,51.4,46.9,42.1,35.9,24.3,15.0,61,42,25,28.13,27.98,33,7,33,0.43
2013-2-23,59.0,50.2,42.1,44.6,38.1,33.0,76,64,43,28.01,27.82,6,0,6,0.33
2013-2-24,66.0,47.5,33.3,34.7,17.1,-9.2,74,40,10,28.00,27.88,14,2,14,0.00
2013-2-25,59.2,43.9,30.6,24.3,6.4,-9.2,52,27,10,28.01,27.81,20,5,20,0.00
2013-2-26,53.6,47.2,36.0,32.2,23.7,5.9,58,41,20,27.82,27.49,33,9,33,0.67
2013-2-27,57.9,44.3,36.0,23.3,9.0,-6.7,58,29,10,27.84,27.70,15,3,15,0.01
2013-2-28,40.6,35.2,33.4,11.2,-1.1,-7.8,37,21,15,27.94,27.79,14,5,14,0.00
2013-3-1,37.6,34.3,32.2,18.5,11.1,-0.5,55,38,23,27.94,27.87,13,2,13,0.00
2013-3-2,39.0,33.2,28.2,19.2,7.1,-14.4,58,36,10,27.96,27.85,16,4,16,0.01
2013-3-3,39.6,30.1,23.7,3.4,-13.4,-24.1,38,16,10,28.02,27.93,16,6,16,0.01
2013-3-4,58.1,37.2,19.0,4.3,-3.9,-18.2,47,22,10,28.11,27.97,8,2,8,0.00
2013-3-5,55.0,45.0,33.4,42.7,24.4,-12.0,69,48,10,28.03,27.63,20,3,20,0.64
2013-3-6,34.7,30.9,27.1,16.8,8.7,-9.1,56,40,19,28.10,27.80,13,1,13,0.01
2013-3-7,32.6,32.6,32.6,5.3,4.5,4.5,31,30,30,31.75,31.75,0,0,0,0.00
2013-3-8,63.5,46.0,23.2,17.1,2.4,-12.0,58,21,10,31.75,28.17,14,3,14,0.00
2013-3-9,70.2,50.8,28.2,14.8,5.5,-8.6,49,20,10,28.27,28.15,15,2,15,0.00
2013-3-10,69.4,59.1,50.0,10.4,2.5,-4.6,10,10,10,28.18,28.04,21,8,21,0.00
2013-3-11,59.4,55.8,50.7,41.4,28.6,1.0,65,39,10,28.07,27.77,32,8,32,0.91
2013-3-12,59.0,46.6,37.0,38.8,13.0,-8.8,65,34,10,28.07,27.81,15,3,15,0.06
2013-3-13,47.3,37.5,28.9,16.8,-1.6,-18.7,54,24,10,28.20,28.03,20,5,20,0.00
2013-3-14,53.4,42.0,25.9,2.0,-7.6,-21.3,18,12,10,28.27,28.15,15,5,15,0.00
2013-3-15,73.0,51.0,28.8,13.2,4.5,-15.3,42,17,10,28.20,27.95,15,2,15,0.00
2013-3-16,77.0,60.9,46.8,21.5,11.5,-0.2,36,16,10,27.97,27.83,16,2,16,0.00
2013-3-17,72.9,59.3,48.6,43.3,24.8,-0.2,35,28,10,27.99,27.88,14,2,14,0.00
2013-3-18,58.8,53.1,46.0,40.2,30.8,13.7,67,44,18,27.95,27.79,23,6,23,0.54
2013-3-19,61.3,49.0,36.0,39.6,12.9,-15.3,72,33,10,28.08,27.86,18,3,18,0.01
2013-3-20,57.0,43.1,29.8,4.8,-3.5,-15.8,27,14,10,28.09,27.86,17,4,17,0.00
2013-3-21,43.3,35.4,27.0,43.3,25.2,-18.2,100,82,10,27.93,27.87,18,6,18,0.00
2013-3-22,48.0,36.2,24.3,27.3,-8.6,-23.1,100,16,10,28.01,27.92,6,0,6,0.00
2013-3-23,59.5,47.1,39.7,38.2,27.1,-2.6,65,48,15,27.99,27.74,20,1,20,0.22
2013-3-24,62.8,50.9,40.1,42.8,33.2,4.4,71,53,20,27.84,27.45,17,5,18,1.11
2013-3-25,40.1,33.0,29.3,15.6,2.1,-10.8,53,28,14,27.97,27.62,17,7,17,0.01
2013-3-26,39.0,33.1,28.4,13.6,2.0,-15.6,53,29,10,28.19,27.94,20,3,20,0.02
2013-3-27,51.4,38.6,26.6,6.1,-6.2,-18.3,38,16,10,28.25,28.16,17,1,17,0.00
2013-3-28,59.4,40.9,24.3,11.3,-0.6,-14.9,50,21,10,28.28,28.19,23,3,23,0.00
2013-3-29,52.7,40.2,27.3,24.4,2.6,-11.6,46,24,10,28.31,28.19,10,0,10,0.00
2013-3-30,70.5,53.7,42.4,39.5,21.9,0.4,64,38,10,28.19,28.00,0,0,0,0.30
2013-3-31,65.5,56.3,52.2,46.6,41.9,24.2,70,60,22,28.01,27.87,15,1,15,0.61
2013-4-1,66.6,55.1,42.8,46.1,21.6,-3.3,71,38,10,28.03,27.82,17,2,17,0.07
2013-4-2,59.7,47.4,33.8,21.6,6.6,-8.1,57,23,10,28.15,28.01,12,1,12,0.00
2013-4-3,64.6,51.4,36.7,7.2,-0.3,-13.1,28,12,10,28.17,28.08,23,0,23,0.00
2013-4-4,55.4,44.1,39.6,32.7,22.4,-6.5,66,48,10,28.14,27.92,16,3,16,0.94
2013-4-5,69.3,51.0,41.2,37.3,19.1,-4.6,72,38,10,28.08,27.91,17,3,17,0.01
2013-4-6,73.6,53.8,32.4,27.8,15.6,1.4,64,30,11,28.18,28.07,14,2,14,0.00
2013-4-7,75.2,63.9,48.7,14.8,7.0,-4.8,15,10,10,28.19,28.07,15,5,15,0.00
2013-4-8,78.4,67.8,53.1,27.3,11.7,4.1,34,12,10,28.13,28.05,7,0,7,0.00
2013-4-9,85.1,69.6,52.3,38.2,20.9,7.1,53,20,10,28.20,28.07,0,0,0,0.00
2013-4-10,89.6,71.6,52.5,69.4,25.9,8.8,100,24,10,28.14,27.92,13,1,13,0.00
2013-4-11,80.2,71.5,61.3,53.8,21.0,8.9,66,19,10,27.96,27.69,18,6,18,0.89
2013-4-12,68.9,59.7,45.9,50.7,27.8,-2.1,68,36,10,27.95,27.66,15,4,15,0.35
2013-4-13,75.6,57.5,37.4,29.7,16.2,-3.7,61,25,10,28.05,27.94,15,2,15,0.00
2013-4-14,70.5,55.4,40.1,30.4,14.3,0.6,45,23,10,28.06,27.92,20,2,20,0.00
2013-4-15,84.7,67.2,55.6,36.4,23.8,10.0,44,23,10,28.15,27.93,16,5,16,0.00
2013-4-16,86.7,72.4,62.6,36.3,26.3,13.7,37,20,10,28.24,28.14,15,4,15,0.00
2013-4-17,88.9,70.7,62.4,51.4,34.9,15.1,66,33,10,28.23,28.07,15,3,15,0.52
2013-4-18,80.8,70.4,59.4,50.3,29.7,12.5,68,28,10,28.09,27.91,20,5,20,0.07
2013-4-19,71.4,59.9,43.0,51.8,29.9,1.9,64,35,13,28.02,27.76,22,5,22,0.60
2013-4-20,66.4,49.5,37.0,57.2,4.8,-13.8,100,22,10,28.23,28.02,10,1,9,0.00
2013-4-21,72.0,52.3,33.1,25.1,12.2,0.2,55,26,11,28.34,28.21,9,0,9,0.00
2013-4-22,76.6,59.2,41.0,21.3,9.4,-5.3,43,16,10,28.31,28.11,14,1,14,0.00
2013-4-23,79.9,61.7,40.8,22.7,13.3,-7.1,44,17,10,28.21,28.04,12,3,12,0.00
2013-4-24,72.5,61.2,43.9,48.7,25.5,6.0,62,32,10,28.16,28.04,15,3,15,0.15
2013-4-25,74.5,55.2,37.8,35.5,14.6,-8.9,65,27,10,28.32,28.13,12,2,12,0.01
2013-4-26,79.2,55.2,32.4,32.7,14.0,-2.6,55,26,10,28.37,28.24,15,2,15,0.00
2013-4-27,58.6,54.3,50.9,41.4,33.3,14.8,64,47,18,28.36,28.13,15,2,15,0.53
2013-4-28,59.9,56.0,52.9,46.8,41.4,26.1,70,59,29,28.16,27.94,18,4,18,1.69
2013-4-29,77.4,62.6,46.9,47.0,32.2,10.0,70,40,10,28.03,27.92,10,1,11,0.00
2013-4-30,82.6,67.0,45.5,44.4,28.8,10.1,68,30,10,28.11,27.97,8,1,8,0.00
2013-5-1,77.5,66.0,54.1,42.5,24.4,8.3,58,25,10,28.19,28.10,8,0,8,0.00
2013-5-2,73.2,64.2,57.0,36.6,24.3,9.7,46,24,10,28.19,28.12,9,0,9,0.00
2013-5-3,73.2,62.6,58.6,37.7,21.9,3.5,45,23,10,28.18,27.97,17,1,17,0.00
2013-5-4,61.0,56.2,52.7,44.1,24.2,-0.4,67,36,10,27.98,27.83,20,4,20,0.99
2013-5-5,61.7,55.0,49.1,43.5,39.3,30.1,67,56,31,27.85,27.74,18,3,18,0.61
2013-5-6,58.1,49.1,44.2,39.8,32.8,17.1,71,56,20,27.85,27.75,6,0,6,0.18
2013-5-7,55.0,55.0,55.0,24.1,24.1,24.1,30,30,30,31.75,29.48,0,0,0,0.00
2013-5-8,55.0,55.0,55.0,24.1,24.1,24.1,30,30,30,31.75,28.73,0,0,0,0.00
2013-5-9,55.0,55.0,55.0,24.1,24.1,24.1,30,30,30,28.73,27.97,0,0,0,0.00
2013-5-10,55.0,55.0,55.0,24.1,24.1,24.1,30,30,30,28.73,27.97,0,0,0,0.00
2013-5-11,65.8,60.5,55.0,50.7,46.2,24.1,68,60,30,28.73,26.46,5,0,5,0.27
2013-5-12,66.6,55.7,41.9,46.2,26.0,-3.9,74,41,10,28.10,27.94,13,1,13,0.00
2013-5-13,67.5,51.3,34.5,29.6,13.5,-5.4,64,30,10,28.19,28.08,10,0,10,0.00
2013-5-14,81.1,58.0,35.8,39.7,20.1,-0.1,60,30,10,28.23,28.09,6,0,6,0.00
2013-5-15,88.7,70.5,50.7,45.2,37.1,11.5,64,34,11,28.33,28.02,5,0,5,0.00
2013-5-16,85.5,67.7,54.1,44.5,32.0,13.6,60,33,10,28.10,27.99,0,0,0,0.00
2013-5-17,82.2,69.5,58.3,49.1,29.4,10.8,64,31,10,28.12,28.04,6,0,6,0.00
2013-5-18,73.0,66.6,61.7,53.0,48.9,31.3,67,54,26,28.09,28.03,9,0,9,0.50
2013-5-19,72.3,66.4,58.3,60.7,55.2,50.4,76,68,53,28.11,27.98,6,0,6,0.38
2013-5-20,88.9,71.2,55.9,63.9,45.0,21.2,90,52,10,28.12,28.02,5,0,5,0.01
2013-5-21,91.9,75.3,62.2,64.4,46.8,21.7,84,49,10,28.08,27.94,12,0,12,0.00
2013-5-22,88.9,70.5,61.2,86.7,52.4,23.1,100,61,10,28.04,27.88,9,0,9,0.34
2013-5-23,83.7,68.9,62.1,63.8,47.0,15.9,89,57,10,27.99,27.92,6,0,6,0.27
2013-5-24,74.7,63.6,49.3,47.5,27.0,-0.4,61,31,10,28.23,27.98,9,1,9,0.00
2013-5-25,81.7,59.8,39.6,39.9,21.5,-1.1,75,33,10,28.31,28.19,7,0,7,0.00
2013-5-26,82.4,61.5,45.3,38.5,25.3,4.6,62,32,10,28.27,28.16,6,0,6,0.00
2013-5-27,88.7,69.3,49.5,45.7,27.9,12.2,71,30,10,28.24,28.12,7,0,7,0.00
2013-5-28,89.1,76.3,66.6,46.3,26.3,13.9,48,18,10,28.22,28.12,10,0,10,0.00
2013-5-29,89.1,75.6,61.3,50.1,32.4,15.1,61,25,10,28.22,28.14,14,1,14,0.00
2013-5-30,85.6,75.6,66.6,48.0,29.1,15.0,50,21,10,28.26,28.15,12,1,12,0.00
2013-5-31,86.4,76.6,70.2,43.5,29.5,16.8,38,20,10,28.22,28.10,10,1,10,0.00
2013-6-1,85.6,75.7,70.0,56.1,36.9,18.0,61,28,10,28.12,28.01,10,2,11,0.02
2013-6-2,75.7,71.0,66.6,65.4,58.9,48.7,78,66,43,28.03,27.91,10,0,10,0.74
2013-6-3,85.1,72.0,61.7,65.6,46.2,17.3,87,53,10,28.00,27.90,7,0,7,0.00
2013-6-4,87.4,70.9,55.0,58.9,41.8,19.4,83,48,10,28.05,27.98,6,0,4,0.00
2013-6-5,87.3,73.5,65.1,60.7,48.2,21.4,81,49,10,28.07,27.95,13,1,13,0.72
2013-6-6,83.7,70.1,61.9,64.9,58.8,41.5,88,70,24,27.96,27.78,6,0,6,0.27
2013-6-7,88.2,71.1,64.2,66.5,57.3,20.7,90,69,10,27.89,27.72,8,0,8,0.15
2013-6-8,85.5,70.2,61.2,60.9,49.0,18.8,87,58,10,28.11,27.86,4,0,3,0.00
2013-6-9,88.7,71.1,61.5,64.7,56.8,22.5,86,67,10,28.13,28.02,10,0,10,0.19
2013-6-10,84.2,71.3,64.0,63.1,54.9,19.1,84,64,10,28.03,27.93,9,0,9,0.44
2013-6-11,88.0,74.8,66.4,68.9,54.1,20.9,89,60,10,28.06,27.97,8,0,8,0.15
2013-6-12,94.3,77.4,64.2,66.9,56.5,26.5,87,58,10,28.09,28.01,6,0,5,0.00
2013-6-13,90.3,76.5,66.6,69.1,58.5,25.7,87,62,10,28.01,27.77,21,1,21,0.31
2013-6-14,85.3,70.4,42.4,62.2,51.3,14.7,88,57,10,28.05,27.88,9,0,9,0.01
2013-6-15,89.2,71.6,55.0,55.9,39.7,17.0,81,45,10,28.15,28.05,2,0,2,0.00
2013-6-16,90.0,73.1,58.5,63.5,45.0,19.1,83,50,10,28.17,28.03,5,0,4,0.04
2013-6-17,85.1,72.3,68.0,67.6,63.0,46.0,87,75,27,28.08,27.97,4,0,3,0.43
2013-6-18,79.9,70.4,64.8,70.2,64.4,60.5,91,82,52,27.98,27.86,5,0,1,0.30
2013-6-19,86.9,72.3,61.3,65.9,52.8,22.0,91,60,10,28.11,27.93,5,0,5,0.00
2013-6-20,88.2,71.3,60.8,63.5,52.8,21.6,87,62,10,28.23,28.10,6,0,6,0.06
2013-6-21,87.3,69.2,62.6,67.0,55.8,20.6,90,71,10,28.26,28.18,11,0,11,0.25
2013-6-22,89.2,72.3,57.7,67.0,46.8,20.9,91,54,10,28.26,28.11,6,0,6,0.00
2013-6-23,89.4,72.5,59.7,64.3,51.5,21.3,87,58,10,28.22,28.12,8,0,8,0.01
2013-6-24,90.7,76.0,66.7,67.9,52.5,23.5,88,56,10,28.24,28.12,5,0,4,0.00
2013-6-25,90.9,74.3,64.9,66.9,53.9,22.1,86,58,10,28.19,28.06,9,0,9,0.00
2013-6-26,90.1,75.3,66.7,67.7,58.5,25.7,87,63,10,28.10,27.97,6,0,6,0.00
2013-6-27,90.3,76.6,69.1,71.2,61.9,30.7,89,66,12,28.01,27.84,4,0,4,0.02
2013-6-28,94.3,75.9,64.8,67.9,55.4,23.6,88,62,10,27.90,27.71,9,0,9,0.05
2013-6-29,91.4,76.8,64.0,67.0,46.1,18.3,89,49,10,27.77,27.70,8,0,8,0.00
2013-6-30,92.1,74.2,58.6,59.8,43.6,20.1,84,46,11,27.84,27.74,7,0,7,0.00
2013-7-1,88.3,72.3,64.4,63.9,53.6,19.9,82,59,10,27.95,27.81,6,0,6,0.05
2013-7-2,86.4,73.3,64.9,65.4,54.6,18.8,88,58,10,28.11,27.93,9,1,9,0.07
2013-7-3,73.0,68.4,65.1,65.2,61.4,55.7,90,79,56,28.18,28.09,8,0,8,1.70
2013-7-4,78.6,70.1,65.1,66.5,64.1,59.6,93,82,54,28.18,28.11,9,2,9,0.70
2013-7-5,81.9,75.3,68.9,63.9,58.2,52.2,83,58,38,28.22,28.13,10,2,10,0.06
2013-7-6,81.3,81.3,81.3,53.3,53.3,53.3,38,38,38,28.19,28.11,0,0,0,0.00
2013-7-7,81.3,81.3,81.3,53.3,53.3,53.3,38,38,38,28.19,28.11,0,0,0,0.00
2013-7-8,81.3,81.3,81.3,53.3,53.3,53.3,38,38,38,28.21,28.12,0,0,0,0.00
2013-7-9,81.3,79.3,68.2,53.3,47.5,15.4,38,34,13,28.19,28.09,5,1,5,0.00
2013-7-10,78.4,71.2,68.2,35.2,21.2,15.4,21,15,13,28.15,27.99,5,3,5,0.00
2013-7-11,78.4,78.4,78.4,35.2,35.2,35.2,21,21,21,28.01,27.97,0,0,0,0.00